createdAt,value
2022-08-17T00:02:56.342Z,19.15
2022-08-17T00:05:25.111Z,19.05
2022-08-17T00:07:52.930Z,19.04
2022-08-17T00:10:20.890Z,18.97
2022-08-17T00:12:49.036Z,19.00
2022-08-17T00:15:17.923Z,18.97
2022-08-17T00:20:18.692Z,18.87
2022-08-17T00:25:20.782Z,18.85
2022-08-17T00:27:48.791Z,18.77
2022-08-17T00:30:16.725Z,18.82
2022-08-17T00:40:44.586Z,18.61
2022-08-17T00:45:47.428Z,18.54
2022-08-17T00:48:29.953Z,18.47
2022-08-17T00:51:06.685Z,18.41
2022-08-17T00:53:41.950Z,18.40
2022-08-17T00:58:42.867Z,18.33
2022-08-17T01:01:12.473Z,18.38
2022-08-17T01:03:49.659Z,18.34
2022-08-17T01:08:47.601Z,18.33
2022-08-17T01:11:15.507Z,18.36
2022-08-17T01:13:45.073Z,18.33
2022-08-17T01:18:48.755Z,18.16
2022-08-17T01:21:23.488Z,18.07
2022-08-17T01:23:52.724Z,18.16
2022-08-17T01:26:21.384Z,18.05
2022-08-17T01:31:24.713Z,18.02
2022-08-17T01:33:52.578Z,17.92
2022-08-17T01:36:20.488Z,18.03
2022-08-17T01:38:48.320Z,17.97
2022-08-17T01:41:18.544Z,17.99
2022-08-17T01:43:50.773Z,17.90
2022-08-17T01:46:23.711Z,17.89
2022-08-17T01:48:51.727Z,17.80
2022-08-17T01:51:20.581Z,17.85
2022-08-17T01:53:52.392Z,17.72
2022-08-17T01:56:24.419Z,17.66
2022-08-17T01:58:52.626Z,17.66
2022-08-17T02:01:22.996Z,17.71
2022-08-17T02:03:53.438Z,17.65
2022-08-17T02:06:28.486Z,17.63
2022-08-17T02:09:03.244Z,17.62
2022-08-17T02:11:34.654Z,17.51
2022-08-17T02:14:04.123Z,17.50
2022-08-17T02:19:07.193Z,17.41
2022-08-17T02:21:35.106Z,17.28
2022-08-17T02:24:03.485Z,17.30
2022-08-17T02:26:33.180Z,17.35
2022-08-17T02:29:01.062Z,17.36
2022-08-17T02:31:31.156Z,17.34
2022-08-17T02:34:04.093Z,17.20
2022-08-17T02:36:35.251Z,17.22
2022-08-17T02:39:03.712Z,17.12
2022-08-17T02:41:33.107Z,17.15
2022-08-17T02:44:01.205Z,17.07
2022-08-17T02:46:31.114Z,17.03
2022-08-17T02:48:59.040Z,17.06
2022-08-17T02:51:27.640Z,17.01
2022-08-17T02:54:38.853Z,16.95
2022-08-17T02:56:45.101Z,16.90
2022-08-17T02:59:12.964Z,16.97
2022-08-17T03:01:40.988Z,16.93
2022-08-17T03:04:09.148Z,16.93
2022-08-17T03:06:37.492Z,16.97
2022-08-17T03:09:05.664Z,16.92
2022-08-17T03:11:33.525Z,16.81
2022-08-17T03:14:02.710Z,16.77
2022-08-17T03:16:30.538Z,16.86
2022-08-17T03:18:58.390Z,16.89
2022-08-17T03:21:26.221Z,16.87
2022-08-17T03:23:54.699Z,16.78
2022-08-17T03:28:50.575Z,16.69
2022-08-17T03:31:21.482Z,16.73
2022-08-17T03:33:49.511Z,16.69
2022-08-17T03:36:17.586Z,16.65
2022-08-17T03:38:45.413Z,16.61
2022-08-17T03:41:14.027Z,16.59
2022-08-17T03:43:41.876Z,16.59
2022-08-17T03:46:35.319Z,16.55
2022-08-17T03:49:23.875Z,16.50
2022-08-17T03:52:09.592Z,16.44
2022-08-17T03:54:55.714Z,16.43
2022-08-17T03:57:23.966Z,16.52
2022-08-17T03:59:52.216Z,16.44
2022-08-17T04:02:23.112Z,16.55
2022-08-17T04:04:52.703Z,16.56
2022-08-17T04:07:21.257Z,16.61
2022-08-17T04:09:49.873Z,16.55
2022-08-17T04:12:19.709Z,16.48
2022-08-17T04:14:53.187Z,16.48
2022-08-17T04:17:24.305Z,16.47
2022-08-17T04:19:54.543Z,16.42
2022-08-17T04:22:31.205Z,16.47
2022-08-17T04:25:05.267Z,16.53
2022-08-17T04:27:33.355Z,16.50
2022-08-17T04:30:01.299Z,16.49
2022-08-17T04:33:04.896Z,16.37
2022-08-17T04:35:22.016Z,16.33
2022-08-17T04:37:50.280Z,16.35
2022-08-17T04:40:44.944Z,16.41
2022-08-17T04:43:14.414Z,16.40
2022-08-17T04:45:55.507Z,16.37
2022-08-17T04:48:29.702Z,16.44
2022-08-17T04:51:09.849Z,16.52
2022-08-17T04:53:39.019Z,16.53
2022-08-17T04:56:07.497Z,16.59
2022-08-17T04:58:39.995Z,16.54
2022-08-17T05:01:08.514Z,16.53
2022-08-17T05:03:36.556Z,16.55
2022-08-17T05:06:06.105Z,16.63
2022-08-17T05:08:34.039Z,16.69
2022-08-17T05:11:01.924Z,16.77
2022-08-17T05:13:30.348Z,16.69
2022-08-17T05:16:00.035Z,16.69
2022-08-17T05:18:29.572Z,16.66
2022-08-17T05:20:57.487Z,16.73
2022-08-17T05:23:29.229Z,16.86
2022-08-17T05:26:12.489Z,16.83
2022-08-17T05:28:53.815Z,16.92
2022-08-17T05:31:22.102Z,16.83
2022-08-17T05:33:50.042Z,16.82
2022-08-17T05:36:41.553Z,16.83
2022-08-17T05:39:07.622Z,17.02
2022-08-17T05:41:35.528Z,16.98
2022-08-17T05:44:05.463Z,17.02
2022-08-17T05:46:41.016Z,17.13
2022-08-17T05:49:09.714Z,17.26
2022-08-17T05:52:02.346Z,17.38
2022-08-17T05:54:42.475Z,17.52
2022-08-17T05:57:30.537Z,17.42
2022-08-17T06:00:07.270Z,17.44
2022-08-17T06:02:51.333Z,17.53
2022-08-17T06:05:34.269Z,17.49
2022-08-17T06:08:10.900Z,17.59
2022-08-17T06:10:48.261Z,17.65
2022-08-17T06:13:22.649Z,17.71
2022-08-17T06:15:57.646Z,17.79
2022-08-17T06:18:30.245Z,17.87
2022-08-17T06:21:02.866Z,17.94
2022-08-17T06:23:35.559Z,18.12
2022-08-17T06:26:16.201Z,18.17
2022-08-17T06:28:52.161Z,18.28
2022-08-17T06:31:23.135Z,18.53
2022-08-17T06:33:51.533Z,18.62
2022-08-17T06:36:31.553Z,18.79
2022-08-17T06:39:09.120Z,18.87
2022-08-17T06:41:49.510Z,18.98
2022-08-17T06:44:42.280Z,19.21
2022-08-17T06:47:28.681Z,19.31
2022-08-17T06:52:46.026Z,19.61
2022-08-17T06:55:21.425Z,20.00
2022-08-17T06:57:54.455Z,20.14
2022-08-17T07:00:25.020Z,20.39
2022-08-17T07:02:58.852Z,20.73
2022-08-17T07:10:42.701Z,21.00
2022-08-17T07:13:39.146Z,21.38
2022-08-17T07:16:18.247Z,21.53
2022-08-17T07:18:46.947Z,21.63
2022-08-17T07:21:27.336Z,21.96
2022-08-17T07:24:30.292Z,22.35
2022-08-17T07:27:07.587Z,22.61
2022-08-17T07:29:41.002Z,23.01
2022-08-17T07:32:11.101Z,23.29
2022-08-17T07:35:01.679Z,23.51
2022-08-17T07:37:32.358Z,23.38
2022-08-17T07:40:15.503Z,23.28
2022-08-17T07:42:46.631Z,23.57
2022-08-17T07:45:30.311Z,23.37
2022-08-17T07:48:15.878Z,23.71
2022-08-17T07:50:46.116Z,23.81
2022-08-17T07:53:19.531Z,24.57
2022-08-17T07:58:18.403Z,25.43
2022-08-17T08:03:34.118Z,25.65
2022-08-17T08:06:03.791Z,25.72
2022-08-17T08:08:35.114Z,25.83
2022-08-17T08:11:07.776Z,25.99
2022-08-17T08:13:40.474Z,27.09
2022-08-17T08:19:01.195Z,27.47
2022-08-17T08:26:57.763Z,28.04
2022-08-17T08:29:34.001Z,29.32
2022-08-17T08:35:01.386Z,28.95
2022-08-17T08:37:43.556Z,28.69
2022-08-17T08:40:29.902Z,29.74
2022-08-17T08:43:09.359Z,28.57
2022-08-17T08:45:45.800Z,29.82
2022-08-17T08:51:27.704Z,31.55
2022-08-17T08:54:02.580Z,31.56
2022-08-17T08:56:38.354Z,30.58
2022-08-17T08:59:17.900Z,31.51
2022-08-17T09:05:12.873Z,30.93
2022-08-17T09:07:43.617Z,31.55
2022-08-17T09:10:19.596Z,30.64
2022-08-17T09:12:56.417Z,30.10
2022-08-17T09:28:38.397Z,30.18
2022-08-17T09:33:45.348Z,29.19
2022-08-17T09:41:34.438Z,30.74
2022-08-17T09:49:32.031Z,30.39
2022-08-17T09:52:04.622Z,30.51
2022-08-17T09:57:31.729Z,31.44
2022-08-17T10:00:13.636Z,31.84
2022-08-17T10:10:56.715Z,32.12
2022-08-17T10:13:35.489Z,33.24
2022-08-17T10:32:23.867Z,34.35
2022-08-17T10:40:53.139Z,32.82
2022-08-17T10:43:32.982Z,33.42
2022-08-17T10:49:25.699Z,32.96
2022-08-17T10:51:55.751Z,32.98
2022-08-17T11:08:31.397Z,32.71
2022-08-17T11:16:43.125Z,32.43
2022-08-17T11:30:36.048Z,34.84
2022-08-17T11:38:58.951Z,34.19
2022-08-17T11:41:37.257Z,33.52
2022-08-17T11:47:28.812Z,32.47
2022-08-17T11:50:31.907Z,32.21
2022-08-17T11:52:59.765Z,31.72
2022-08-17T12:03:54.440Z,30.56
2022-08-17T12:06:36.237Z,30.27
2022-08-17T12:11:56.359Z,29.89
2022-08-17T12:15:08.509Z,29.76
2022-08-17T12:20:16.339Z,29.69
2022-08-17T12:25:33.037Z,29.24
2022-08-17T12:28:04.987Z,29.04
2022-08-17T12:33:03.966Z,28.91
2022-08-17T12:38:28.177Z,27.97
2022-08-17T12:43:32.811Z,27.28
2022-08-17T12:46:15.210Z,26.75
2022-08-17T12:48:59.344Z,26.68
2022-08-17T12:51:30.056Z,26.67
2022-08-17T12:53:58.082Z,26.60
2022-08-17T12:56:26.052Z,26.62
2022-08-17T12:58:55.673Z,26.43
2022-08-17T13:01:25.227Z,26.24
2022-08-17T13:03:59.744Z,26.06
2022-08-17T13:06:31.559Z,25.99
2022-08-17T13:09:10.743Z,26.00
2022-08-17T13:11:48.691Z,26.03
2022-08-17T13:14:18.479Z,26.02
2022-08-17T13:22:13.449Z,25.92
2022-08-17T13:24:54.523Z,26.00
2022-08-17T13:29:55.868Z,25.98
2022-08-17T13:32:34.974Z,26.03
2022-08-17T13:35:12.031Z,26.04
2022-08-17T13:37:58.768Z,26.16
2022-08-17T13:40:31.337Z,26.43
2022-08-17T13:42:59.605Z,26.28
2022-08-17T13:45:44.804Z,26.57
2022-08-17T13:48:20.892Z,26.31
2022-08-17T13:51:04.130Z,26.23
2022-08-17T13:53:50.539Z,26.24
2022-08-17T13:56:38.806Z,26.42
2022-08-17T13:59:11.669Z,26.53
2022-08-17T14:01:42.571Z,26.45
2022-08-17T14:04:12.975Z,26.48
2022-08-17T14:06:52.251Z,26.64
2022-08-17T14:09:26.677Z,26.59
2022-08-17T14:11:55.986Z,26.90
2022-08-17T14:14:24.498Z,26.77
2022-08-17T14:19:22.119Z,26.95
2022-08-17T14:24:25.354Z,27.49
2022-08-17T14:26:53.943Z,27.65
2022-08-17T14:29:22.474Z,28.63
2022-08-17T14:34:22.022Z,28.96
2022-08-17T14:46:46.468Z,29.28
2022-08-17T14:49:15.662Z,29.44
2022-08-17T14:51:44.018Z,29.91
2022-08-17T14:54:32.977Z,31.05
2022-08-17T14:59:53.409Z,31.25
2022-08-17T15:05:00.884Z,30.00
2022-08-17T15:07:31.092Z,29.85
2022-08-17T15:10:00.868Z,29.66
2022-08-17T15:15:04.700Z,29.53
2022-08-17T15:17:44.430Z,28.99
2022-08-17T15:20:15.984Z,28.87
2022-08-17T15:22:45.346Z,29.05
2022-08-17T15:27:44.923Z,29.29
2022-08-17T15:30:13.822Z,28.69
2022-08-17T15:32:50.773Z,28.72
2022-08-17T15:37:55.917Z,28.44
2022-08-17T15:42:53.099Z,29.49
2022-08-17T15:47:55.020Z,30.08
2022-08-17T15:52:57.974Z,32.45
2022-08-17T15:55:27.726Z,32.25
2022-08-17T16:35:47.238Z,32.62
2022-08-17T16:53:11.374Z,31.56
2022-08-17T16:55:39.954Z,31.54
2022-08-17T17:08:39.480Z,29.98
2022-08-17T17:24:17.198Z,28.48
2022-08-17T17:27:12.270Z,28.50
2022-08-17T17:32:32.428Z,28.01
2022-08-17T17:35:08.015Z,27.75
2022-08-17T17:37:36.736Z,27.68
2022-08-17T17:40:10.541Z,27.64
2022-08-17T17:42:41.848Z,27.57
2022-08-17T17:45:17.594Z,27.41
2022-08-17T17:50:17.944Z,27.02
2022-08-17T17:53:00.024Z,26.95
2022-08-17T17:58:20.013Z,26.71
2022-08-17T18:00:55.258Z,26.70
2022-08-17T18:03:35.632Z,26.54
2022-08-17T18:06:20.042Z,26.43
2022-08-17T18:11:51.660Z,26.25
2022-08-17T18:14:33.580Z,26.21
2022-08-17T18:17:02.183Z,26.11
2022-08-17T18:19:31.585Z,26.09
2022-08-17T18:22:08.500Z,25.94
2022-08-17T18:24:44.786Z,25.90
2022-08-17T18:27:23.305Z,25.82
2022-08-17T18:29:53.983Z,25.72
2022-08-17T18:32:35.357Z,25.64
2022-08-17T18:38:20.363Z,25.55
2022-08-17T18:43:36.527Z,25.37
2022-08-17T18:46:28.313Z,25.28
2022-08-17T18:48:59.504Z,25.18
2022-08-17T18:51:42.383Z,25.06
2022-08-17T18:54:20.008Z,24.99
2022-08-17T18:56:54.631Z,24.97
2022-08-17T19:02:23.207Z,24.80
2022-08-17T19:05:13.444Z,24.73
2022-08-17T19:10:25.079Z,24.55
2022-08-17T19:13:00.207Z,24.51
2022-08-17T19:15:36.120Z,24.49
2022-08-17T19:18:15.453Z,24.42
2022-08-17T19:23:23.316Z,24.27
2022-08-17T19:25:58.676Z,24.22
2022-08-17T19:28:31.033Z,24.11
2022-08-17T19:31:06.114Z,23.98
2022-08-17T19:33:34.109Z,23.92
2022-08-17T19:36:08.484Z,23.80
2022-08-17T19:38:44.984Z,23.75
2022-08-17T19:44:12.895Z,23.75
2022-08-17T19:46:48.575Z,23.68
2022-08-17T19:49:33.521Z,23.62
2022-08-17T19:52:26.101Z,23.50
2022-08-17T19:57:42.470Z,23.33
2022-08-17T20:00:13.378Z,23.24
2022-08-17T20:02:49.715Z,23.13
2022-08-17T20:05:25.978Z,23.11
2022-08-17T20:07:58.480Z,22.98
2022-08-17T20:10:40.391Z,22.96
2022-08-17T20:13:16.114Z,22.98
2022-08-17T20:15:46.259Z,22.91
2022-08-17T20:18:23.320Z,22.80
2022-08-17T20:26:19.306Z,22.38
2022-08-17T20:29:20.706Z,22.26
2022-08-17T20:32:25.578Z,22.13
2022-08-17T20:35:20.829Z,22.07
2022-08-17T20:37:55.108Z,22.00
2022-08-17T20:40:27.377Z,21.86
2022-08-17T20:42:55.294Z,21.84
2022-08-17T20:48:38.045Z,21.69
2022-08-17T20:51:27.235Z,21.74
2022-08-17T20:54:36.984Z,21.59
2022-08-17T20:57:06.766Z,21.57
2022-08-17T21:00:07.533Z,21.64
2022-08-17T21:02:38.144Z,21.63
2022-08-17T21:05:32.386Z,21.61
2022-08-17T21:08:14.262Z,21.53
2022-08-17T21:13:45.076Z,21.62
2022-08-17T21:16:37.206Z,21.56
2022-08-17T21:19:22.143Z,21.46
2022-08-17T21:22:01.254Z,21.39
2022-08-17T21:24:41.959Z,21.39
2022-08-17T21:27:27.268Z,21.35
2022-08-17T21:30:21.956Z,21.25
2022-08-17T21:33:16.035Z,21.20
2022-08-17T21:35:51.192Z,21.18
2022-08-17T21:40:51.784Z,21.10
2022-08-17T21:43:26.654Z,20.97
2022-08-17T21:46:01.790Z,20.98
2022-08-17T21:48:32.414Z,21.03
2022-08-17T21:51:10.508Z,21.02
2022-08-17T21:53:44.229Z,20.98
2022-08-17T21:56:14.166Z,21.02
2022-08-17T21:58:48.402Z,21.03
2022-08-17T22:06:34.513Z,20.78
2022-08-17T22:14:26.067Z,20.86
2022-08-17T22:22:56.902Z,20.72
2022-08-17T22:30:33.096Z,20.67
2022-08-17T22:33:02.948Z,20.61
2022-08-17T22:35:36.847Z,20.50
2022-08-17T22:38:33.450Z,20.53
2022-08-17T22:41:22.834Z,20.50
2022-08-17T22:43:52.061Z,20.41
2022-08-17T22:46:22.244Z,20.32
2022-08-17T22:51:23.239Z,20.30
2022-08-17T22:54:13.393Z,20.26
2022-08-17T22:59:46.185Z,20.19
2022-08-17T23:02:21.748Z,20.21
2022-08-17T23:04:52.792Z,20.19
2022-08-17T23:07:21.783Z,20.19
2022-08-17T23:09:52.810Z,20.18
2022-08-17T23:15:00.671Z,20.33
2022-08-17T23:17:33.880Z,20.30
2022-08-17T23:20:06.154Z,20.31
2022-08-17T23:25:03.711Z,20.44
2022-08-17T23:27:31.898Z,20.38
2022-08-17T23:29:59.957Z,20.44
2022-08-17T23:32:28.450Z,20.41
2022-08-17T23:34:59.173Z,20.43
2022-08-17T23:37:28.478Z,20.42
2022-08-17T23:39:56.296Z,20.36
2022-08-17T23:42:25.544Z,20.30
2022-08-17T23:44:53.379Z,20.23
2022-08-17T23:49:49.568Z,20.16
2022-08-17T23:52:22.753Z,20.18
2022-08-17T23:54:50.635Z,20.19
2022-08-17T23:57:20.611Z,20.23
